Big Bear Station Historical Data
Daily Summary for January 27, 2017 Units:  English    Metric   Both
« Previous Day
Next Day »
Daily Weekly Monthly Yearly Custom
  High: Low: Average:
Temperature: 34.0 °F 17.6 °F 22.8 °F
Dew Point: 16.4 °F 4.1 °F 10.8 °F
Humidity: 91 % 29 % 62 %
Wind Speed: 14.0 mph 0.0 mph 3.9 mph
Wind Gust: -999.0 mph - -
Wind:- - SSW
Pressure: 30.45 in 30.24 in -
Precipitation: 0.00 in    
Historical Graphs
 
 
Tabular Data for January 27, 2017
Time Temperature Dew Point Pressure Wind Wind Speed Wind Gust Humidity Rainfall Rate (Hourly)
00:00 17.6 °F 15.4 °F 30.26 in SSE 2.2 mph -999.0 mph 91 % 0 in
00:16 18.1 °F 15.7 °F 30.26 in Calm   -999.0 mph 90 % 0 in
00:31 18.9 °F 16.2 °F 30.26 in ESE 2.2 mph -999.0 mph 89 % 0 in
00:46 19.4 °F 16.4 °F 30.26 in ESE 1.7 mph -999.0 mph 88 % 0 in
01:01 19.2 °F 16.2 °F 30.26 in NW 2.2 mph -999.0 mph 88 % 0 in
01:32 19.2 °F 15.7 °F 30.25 in SSW 2.7 mph -999.0 mph 86 % 0 in
01:47 19.2 °F 15.4 °F 30.26 in Calm   -999.0 mph 85 % 0 in
02:02 18.7 °F 15.2 °F 30.26 in NE 3.7 mph -999.0 mph 86 % 0 in
02:17 18.9 °F 15.1 °F 30.26 in NW 6.3 mph -999.0 mph 85 % 0 in
02:33 18.7 °F 15.2 °F 30.26 in ESE 1.1 mph -999.0 mph 86 % 0 in
02:48 18.3 °F 14.8 °F 30.26 in ESE 3.2 mph -999.0 mph 86 % 0 in
03:03 18.7 °F 14.9 °F 30.25 in Calm   -999.0 mph 85 % 0 in
03:18 18.5 °F 14.7 °F 30.26 in ESE 2.2 mph -999.0 mph 85 % 0 in
03:36 18.5 °F 15.3 °F 30.25 in ESE 1.7 mph -999.0 mph 87 % 0 in
04:05 18.1 °F 14.6 °F 30.25 in NE 4.7 mph -999.0 mph 86 % 0 in
04:20 18.5 °F 14.5 °F 30.24 in ENE 3.7 mph -999.0 mph 84 % 0 in
04:35 18.3 °F 13.4 °F 30.24 in NNW 3.7 mph -999.0 mph 81 % 0 in
05:06 18.7 °F 13.0 °F 30.24 in ESE 3.7 mph -999.0 mph 78 % 0 in
05:21 18.7 °F 13.3 °F 30.24 in ENE 4.2 mph -999.0 mph 79 % 0 in
05:36 18.5 °F 13.9 °F 30.25 in NW 7.3 mph -999.0 mph 82 % 0 in
05:51 18.3 °F 13.4 °F 30.26 in West 8.3 mph -999.0 mph 81 % 0 in
06:22 18.3 °F 13.7 °F 30.26 in NNW 13.0 mph -999.0 mph 82 % 0 in
06:38 18.7 °F 13.6 °F 30.27 in NW 10.9 mph -999.0 mph 80 % 0 in
06:53 18.7 °F 12.7 °F 30.29 in NNW 9.4 mph -999.0 mph 77 % 0 in
07:10 19.0 °F 12.4 °F 30.28 in NNW 12.5 mph -999.0 mph 75 % 0 in
07:24 19.4 °F 10.9 °F 30.29 in NNW 10.4 mph -999.0 mph 69 % 0 in
07:39 19.6 °F 10.4 °F 30.30 in West 14.0 mph -999.0 mph 67 % 0 in
07:54 19.6 °F 10.1 °F 30.31 in NE 11.9 mph -999.0 mph 66 % 0 in
08:09 20.1 °F 9.2 °F 30.31 in NNW 11.4 mph -999.0 mph 62 % 0 in
08:40 20.5 °F 10.6 °F 30.33 in NNW 11.4 mph -999.0 mph 65 % 0 in
08:55 21.0 °F 11.1 °F 30.33 in North 8.9 mph -999.0 mph 65 % 0 in
09:11 21.2 °F 10.9 °F 30.34 in West 4.2 mph -999.0 mph 64 % 0 in
09:26 21.7 °F 11.0 °F 30.34 in South 5.8 mph -999.0 mph 63 % 0 in
09:41 22.5 °F 11.4 °F 30.36 in West 9.4 mph -999.0 mph 62 % 0 in
09:56 23.2 °F 12.5 °F 30.38 in ESE 4.2 mph -999.0 mph 63 % 0 in
10:11 24.1 °F 11.1 °F 30.38 in South 2.7 mph -999.0 mph 57 % 0 in
10:27 25.3 °F 10.5 °F 30.38 in SSE 4.7 mph -999.0 mph 53 % 0 in
10:42 25.5 °F 10.7 °F 30.38 in SSE 4.7 mph -999.0 mph 53 % 0 in
10:58 27.5 °F 10.4 °F 30.38 in SSW 2.2 mph -999.0 mph 48 % 0 in
11:13 27.9 °F 10.7 °F 30.37 in ESE 1.7 mph -999.0 mph 48 % 0 in
11:28 29.5 °F 12.2 °F 30.36 in ESE 1.1 mph -999.0 mph 48 % 0 in
11:44 29.3 °F 11.5 °F 30.35 in SE 1.7 mph -999.0 mph 47 % 0 in
11:59 30.4 °F 11.6 °F 30.34 in SSW 4.2 mph -999.0 mph 45 % 0 in
12:29 34.0 °F 7.2 °F 30.32 in WSW 4.2 mph -999.0 mph 32 % 0 in
12:45 33.3 °F 5.9 °F 30.32 in West 5.8 mph -999.0 mph 31 % 0 in
13:00 32.9 °F 4.1 °F 30.33 in NNW 4.7 mph -999.0 mph 29 % 0 in
13:16 32.7 °F 6.1 °F 30.33 in East 2.7 mph -999.0 mph 32 % 0 in
13:31 32.4 °F 8.4 °F 30.33 in ESE 1.7 mph -999.0 mph 36 % 0 in
13:46 32.2 °F 10.6 °F 30.33 in North 3.7 mph -999.0 mph 40 % 0 in
14:01 31.6 °F 10.6 °F 30.32 in West 3.7 mph -999.0 mph 41 % 0 in
14:17 30.9 °F 9.9 °F 30.33 in ENE 3.7 mph -999.0 mph 41 % 0 in
14:32 29.8 °F 8.4 °F 30.34 in Calm   -999.0 mph 40 % 0 in
15:02 29.5 °F 8.7 °F 30.34 in East 2.7 mph -999.0 mph 41 % 0 in
15:18 29.5 °F 9.2 °F 30.35 in South 3.2 mph -999.0 mph 42 % 0 in
15:33 28.9 °F 8.1 °F 30.36 in SSE 3.7 mph -999.0 mph 41 % 0 in
15:48 28.2 °F 9.6 °F 30.36 in South 2.2 mph -999.0 mph 45 % 0 in
16:03 27.7 °F 7.6 °F 30.36 in ESE 2.7 mph -999.0 mph 42 % 0 in
16:18 26.8 °F 7.8 °F 30.37 in Calm   -999.0 mph 44 % 0 in
16:34 26.1 °F 7.1 °F 30.37 in NW 1.7 mph -999.0 mph 44 % 0 in
16:49 25.0 °F 8.5 °F 30.38 in ENE 2.2 mph -999.0 mph 49 % 0 in
17:04 24.1 °F 9.4 °F 30.38 in SSW 1.7 mph -999.0 mph 53 % 0 in
17:19 23.4 °F 9.2 °F 30.38 in SSE 2.2 mph -999.0 mph 54 % 0 in
17:34 23.0 °F 9.2 °F 30.38 in SW 4.7 mph -999.0 mph 55 % 0 in
17:50 23.2 °F 8.6 °F 30.38 in SSE 4.2 mph -999.0 mph 53 % 0 in
18:05 22.5 °F 8.3 °F 30.39 in SSW 4.7 mph -999.0 mph 54 % 0 in
18:20 22.6 °F 8.8 °F 30.39 in SSE 4.2 mph -999.0 mph 55 % 0 in
18:36 22.1 °F 9.6 °F 30.40 in South 3.2 mph -999.0 mph 58 % 0 in
18:51 21.9 °F 9.4 °F 30.40 in SSW 2.7 mph -999.0 mph 58 % 0 in
19:06 21.6 °F 9.5 °F 30.41 in SW 2.2 mph -999.0 mph 59 % 0 in
19:21 21.4 °F 10.0 °F 30.41 in SSW 7.3 mph -999.0 mph 61 % 0 in
19:36 20.8 °F 10.2 °F 30.41 in South 1.7 mph -999.0 mph 63 % 0 in
19:52 20.8 °F 9.5 °F 30.41 in SSE 2.2 mph -999.0 mph 61 % 0 in
20:07 21.0 °F 8.9 °F 30.42 in South 3.2 mph -999.0 mph 59 % 0 in
20:22 20.8 °F 9.5 °F 30.42 in SSE 2.2 mph -999.0 mph 61 % 0 in
20:37 20.3 °F 8.2 °F 30.42 in SSW 3.7 mph -999.0 mph 59 % 0 in
20:53 21.6 °F 7.5 °F 30.42 in ESE 2.7 mph -999.0 mph 54 % 0 in
21:08 21.6 °F 7.9 °F 30.43 in South 2.7 mph -999.0 mph 55 % 0 in
21:23 21.6 °F 7.9 °F 30.43 in South 3.2 mph -999.0 mph 55 % 0 in
21:38 21.0 °F 8.5 °F 30.44 in SSW 1.1 mph -999.0 mph 58 % 0 in
21:54 20.1 °F 9.2 °F 30.44 in SSE 1.7 mph -999.0 mph 62 % 0 in
22:09 19.4 °F 8.9 °F 30.44 in SSW 1.7 mph -999.0 mph 63 % 0 in
22:39 19.9 °F 8.6 °F 30.44 in SSE 2.2 mph -999.0 mph 61 % 0 in
22:54 20.3 °F 7.9 °F 30.44 in South 2.7 mph -999.0 mph 58 % 0 in
23:10 20.5 °F 7.7 °F 30.45 in Calm   -999.0 mph 57 % 0 in
23:25 20.3 °F 9.0 °F 30.45 in Calm   -999.0 mph 61 % 0 in
23:40 20.1 °F 8.8 °F 30.45 in WNW 1.1 mph -999.0 mph 61 % 0 in
23:55 20.3 °F 8.2 °F 30.45 in Calm   -999.0 mph 59 % 0 in
Big Bear CA Weather
Compliments of Weather Underground - 1.5 mb